createdAt,value
2023-03-08T00:00:23.493Z,17.70
2023-03-08T00:01:23.485Z,16.50
2023-03-08T00:02:23.477Z,17.50
2023-03-08T00:03:23.502Z,17.60
2023-03-08T00:04:23.572Z,18.80
2023-03-08T00:05:23.453Z,19.50
2023-03-08T00:06:23.451Z,18.70
2023-03-08T00:07:23.439Z,17.40
2023-03-08T00:08:23.498Z,16.60
2023-03-08T00:09:23.414Z,18.20
2023-03-08T00:10:23.404Z,16.30
2023-03-08T00:11:23.399Z,16.50
2023-03-08T00:12:23.386Z,17.30
2023-03-08T00:13:24.547Z,18.50
2023-03-08T00:14:24.509Z,15.50
2023-03-08T00:15:24.511Z,16.80
2023-03-08T00:16:24.637Z,15.80
2023-03-08T00:17:24.491Z,15.90
2023-03-08T00:18:24.505Z,18.10
2023-03-08T00:19:24.480Z,15.90
2023-03-08T00:20:24.471Z,17.20
2023-03-08T00:21:24.472Z,16.80
2023-03-08T00:22:24.454Z,17.30
2023-03-08T00:23:24.471Z,17.60
2023-03-08T00:24:24.445Z,17.50
2023-03-08T00:25:24.437Z,17.30
2023-03-08T00:26:24.425Z,20.10
2023-03-08T00:27:24.413Z,19.60
2023-03-08T00:28:24.442Z,22.30
2023-03-08T00:29:24.427Z,23.20
2023-03-08T00:30:24.392Z,21.90
2023-03-08T00:31:24.429Z,21.70
2023-03-08T00:32:24.420Z,21.60
2023-03-08T00:33:24.400Z,19.70
2023-03-08T00:34:24.357Z,22.20
2023-03-08T00:35:24.387Z,16.60
2023-03-08T00:36:24.356Z,19.70
2023-03-08T00:37:24.342Z,19.40
2023-03-08T00:38:24.354Z,17.90
2023-03-08T00:39:24.329Z,17.50
2023-03-08T00:40:24.318Z,16.00
2023-03-08T00:41:24.317Z,14.20
2023-03-08T00:42:24.302Z,14.30
2023-03-08T00:43:24.318Z,14.00
2023-03-08T00:44:24.280Z,15.60
2023-03-08T00:45:25.281Z,14.00
2023-03-08T00:46:24.343Z,14.10
2023-03-08T00:47:24.276Z,15.00
2023-03-08T00:48:24.297Z,15.00
2023-03-08T00:49:24.251Z,14.00
2023-03-08T00:50:24.242Z,15.60
2023-03-08T00:51:24.233Z,13.90
2023-03-08T00:52:24.225Z,15.10
2023-03-08T00:53:24.244Z,15.00
2023-03-08T00:54:24.211Z,15.30
2023-03-08T00:55:24.202Z,15.90
2023-03-08T00:56:24.200Z,14.50
2023-03-08T00:57:24.189Z,14.40
2023-03-08T00:58:24.218Z,16.40
2023-03-08T00:59:24.186Z,17.30
2023-03-08T01:00:24.167Z,15.20
2023-03-08T01:01:25.158Z,17.60
2023-03-08T01:02:24.155Z,17.50
2023-03-08T01:03:24.167Z,15.70
2023-03-08T01:04:24.136Z,17.00
2023-03-08T01:05:24.129Z,13.20
2023-03-08T01:06:24.119Z,16.20
2023-03-08T01:07:24.116Z,14.10
2023-03-08T01:08:24.130Z,12.30
2023-03-08T01:09:24.098Z,11.90
2023-03-08T01:10:24.096Z,12.50
2023-03-08T01:11:24.095Z,12.00
2023-03-08T01:12:24.084Z,13.90
2023-03-08T01:13:24.090Z,11.10
2023-03-08T01:14:24.061Z,8.90
2023-03-08T01:15:24.047Z,8.00
2023-03-08T01:16:24.053Z,8.30
2023-03-08T01:17:24.033Z,9.10
2023-03-08T01:18:24.059Z,8.60
2023-03-08T01:19:24.024Z,9.30
2023-03-08T01:20:24.021Z,9.00
2023-03-08T01:21:24.017Z,7.30
2023-03-08T01:22:23.996Z,7.50
2023-03-08T01:23:24.016Z,7.80
2023-03-08T01:24:23.989Z,7.40
2023-03-08T01:25:23.979Z,6.60
2023-03-08T01:26:23.975Z,6.60
2023-03-08T01:27:23.962Z,6.50
2023-03-08T01:28:23.981Z,5.70
2023-03-08T01:29:23.944Z,5.90
2023-03-08T01:30:23.951Z,5.60
2023-03-08T01:31:23.944Z,5.60
2023-03-08T01:32:23.961Z,7.20
2023-03-08T01:33:23.947Z,6.10
2023-03-08T01:34:23.913Z,6.90
2023-03-08T01:35:23.905Z,8.00
2023-03-08T01:36:23.897Z,10.90
2023-03-08T01:37:23.891Z,10.30
2023-03-08T01:38:23.908Z,11.60
2023-03-08T01:39:23.873Z,12.50
2023-03-08T01:40:23.875Z,13.80
2023-03-08T01:41:23.862Z,13.20
2023-03-08T01:42:23.850Z,14.80
2023-03-08T01:43:23.882Z,14.00
2023-03-08T01:44:23.841Z,14.70
2023-03-08T01:45:23.829Z,17.70
2023-03-08T01:46:23.833Z,14.60
2023-03-08T01:47:23.824Z,16.80
2023-03-08T01:48:23.835Z,17.10
2023-03-08T01:49:23.805Z,16.10
2023-03-08T01:50:23.793Z,18.50
2023-03-08T01:51:23.788Z,15.30
2023-03-08T01:52:23.794Z,17.30
2023-03-08T01:53:23.795Z,16.80
2023-03-08T01:54:23.762Z,19.60
2023-03-08T01:55:23.758Z,17.40
2023-03-08T01:56:23.753Z,20.20
2023-03-08T01:57:23.762Z,18.20
2023-03-08T01:58:23.756Z,18.00
2023-03-08T01:59:23.756Z,17.50
2023-03-08T02:00:23.722Z,18.10
2023-03-08T02:01:23.737Z,19.00
2023-03-08T02:02:23.714Z,19.80
2023-03-08T02:03:23.717Z,17.10
2023-03-08T02:04:23.684Z,18.80
2023-03-08T02:05:24.684Z,19.10
2023-03-08T02:06:23.675Z,19.80
2023-03-08T02:07:23.660Z,17.20
2023-03-08T02:08:23.687Z,18.00
2023-03-08T02:09:23.645Z,19.40
2023-03-08T02:10:23.639Z,18.70
2023-03-08T02:11:23.635Z,19.00
2023-03-08T02:12:23.627Z,21.50
2023-03-08T02:13:23.648Z,19.50
2023-03-08T02:14:23.611Z,20.90
2023-03-08T02:15:23.606Z,18.80
2023-03-08T02:16:23.597Z,19.40
2023-03-08T02:17:23.588Z,20.40
2023-03-08T02:18:23.614Z,18.90
2023-03-08T02:19:23.576Z,21.60
2023-03-08T02:20:23.580Z,19.50
2023-03-08T02:21:23.565Z,19.30
2023-03-08T02:22:23.555Z,21.10
2023-03-08T02:23:23.627Z,20.70
2023-03-08T02:24:23.558Z,20.20
2023-03-08T02:25:23.542Z,20.80
2023-03-08T02:26:23.530Z,21.00
2023-03-08T02:27:23.524Z,18.70
2023-03-08T02:28:23.517Z,21.10
2023-03-08T02:29:23.536Z,21.00
2023-03-08T02:30:23.503Z,19.90
2023-03-08T02:31:23.500Z,23.10
2023-03-08T02:32:23.554Z,21.70
2023-03-08T02:33:23.521Z,21.10
2023-03-08T02:34:23.468Z,22.40
2023-03-08T02:35:23.479Z,23.20
2023-03-08T02:36:23.460Z,23.40
2023-03-08T02:37:23.449Z,22.90
2023-03-08T02:38:23.444Z,24.60
2023-03-08T02:39:23.450Z,19.70
2023-03-08T02:40:23.424Z,20.80
2023-03-08T02:41:23.414Z,21.90
2023-03-08T02:42:23.407Z,21.20
2023-03-08T02:43:23.397Z,20.80
2023-03-08T02:44:23.430Z,20.30
2023-03-08T02:45:23.402Z,21.70
2023-03-08T02:46:23.386Z,20.80
2023-03-08T02:47:23.374Z,18.80
2023-03-08T02:48:23.365Z,19.20
2023-03-08T02:49:23.377Z,20.40
2023-03-08T02:50:23.344Z,20.70
2023-03-08T02:51:23.338Z,20.40
2023-03-08T02:52:23.338Z,22.10
2023-03-08T02:53:23.322Z,18.30
2023-03-08T02:54:23.342Z,20.80
2023-03-08T02:55:23.306Z,20.10
2023-03-08T02:56:23.309Z,18.00
2023-03-08T02:57:23.301Z,19.30
2023-03-08T02:58:24.281Z,21.50
2023-03-08T02:59:24.073Z,21.30
2023-03-08T03:00:24.278Z,21.40
2023-03-08T03:01:23.349Z,20.80
2023-03-08T03:02:23.253Z,16.90
2023-03-08T03:03:23.244Z,17.90
2023-03-08T03:04:23.263Z,18.20
2023-03-08T03:05:23.234Z,17.50
2023-03-08T03:06:23.315Z,18.60
2023-03-08T03:07:23.218Z,19.20
2023-03-08T03:08:23.210Z,19.80
2023-03-08T03:09:23.225Z,19.50
2023-03-08T03:10:23.194Z,21.70
2023-03-08T03:11:23.188Z,19.90
2023-03-08T03:12:23.178Z,19.90
2023-03-08T03:13:23.178Z,18.30
2023-03-08T03:14:23.194Z,19.50
2023-03-08T03:15:23.150Z,19.50
2023-03-08T03:16:23.147Z,20.80
2023-03-08T03:17:23.139Z,18.90
2023-03-08T03:18:23.130Z,21.10
2023-03-08T03:19:23.164Z,19.20
2023-03-08T03:20:23.117Z,20.60
2023-03-08T03:21:23.107Z,21.60
2023-03-08T03:22:23.108Z,21.00
2023-03-08T03:23:23.097Z,21.00
2023-03-08T03:24:23.108Z,23.50
2023-03-08T03:25:23.092Z,21.40
2023-03-08T03:26:23.071Z,21.40
2023-03-08T03:27:23.064Z,20.40
2023-03-08T03:28:23.057Z,20.60
2023-03-08T03:29:23.077Z,21.80
2023-03-08T03:30:23.037Z,19.10
2023-03-08T03:31:23.076Z,19.30
2023-03-08T03:32:23.074Z,20.80
2023-03-08T03:33:23.024Z,21.90
2023-03-08T03:34:23.035Z,20.90
2023-03-08T03:35:23.006Z,19.20
2023-03-08T03:36:23.010Z,22.40
2023-03-08T03:37:22.989Z,21.90
2023-03-08T03:38:22.987Z,22.80
2023-03-08T03:39:23.006Z,20.90
2023-03-08T03:40:22.965Z,23.50
2023-03-08T03:41:22.995Z,20.80
2023-03-08T03:42:22.956Z,23.20
2023-03-08T03:43:22.952Z,21.00
2023-03-08T03:44:23.064Z,20.80
2023-03-08T03:45:22.928Z,19.40
2023-03-08T03:46:22.936Z,20.20
2023-03-08T03:47:22.919Z,20.30
2023-03-08T03:48:22.922Z,19.40
2023-03-08T03:49:22.930Z,21.40
2023-03-08T03:50:22.901Z,16.50
2023-03-08T03:51:22.897Z,17.90
2023-03-08T03:52:22.886Z,18.90
2023-03-08T03:53:22.879Z,21.80
2023-03-08T03:54:22.901Z,20.50
2023-03-08T03:55:22.865Z,20.30
2023-03-08T03:56:22.858Z,20.30
2023-03-08T03:57:22.852Z,19.00
2023-03-08T03:58:22.846Z,20.90
2023-03-08T03:59:23.955Z,18.30
2023-03-08T04:00:22.827Z,21.90
2023-03-08T04:01:22.819Z,21.40
2023-03-08T04:02:23.832Z,21.60
2023-03-08T04:03:22.875Z,21.50
2023-03-08T04:04:22.826Z,20.60
2023-03-08T04:05:22.799Z,23.60
2023-03-08T04:06:22.792Z,21.30
2023-03-08T04:07:22.783Z,23.30
2023-03-08T04:08:22.774Z,22.70
2023-03-08T04:09:22.800Z,21.50
2023-03-08T04:10:22.756Z,19.70
2023-03-08T04:11:22.755Z,17.80
2023-03-08T04:12:22.748Z,19.60
2023-03-08T04:13:22.737Z,19.50
2023-03-08T04:14:22.761Z,19.30
2023-03-08T04:15:22.750Z,20.60
2023-03-08T04:16:22.784Z,18.80
2023-03-08T04:17:22.705Z,21.10
2023-03-08T04:18:22.708Z,21.60
2023-03-08T04:19:22.723Z,18.40
2023-03-08T04:20:22.695Z,20.00
2023-03-08T04:21:22.677Z,20.20
2023-03-08T04:22:22.671Z,20.50
2023-03-08T04:23:22.670Z,18.20
2023-03-08T04:24:22.685Z,19.30
2023-03-08T04:25:22.649Z,22.40
2023-03-08T04:26:22.642Z,19.30
2023-03-08T04:27:22.649Z,20.80
2023-03-08T04:28:22.635Z,21.00
2023-03-08T04:29:22.669Z,22.20
2023-03-08T04:30:22.615Z,19.80
2023-03-08T04:31:22.659Z,21.30
2023-03-08T04:32:22.686Z,21.40
2023-03-08T04:33:22.605Z,20.30
2023-03-08T04:34:22.621Z,22.80
2023-03-08T04:35:22.580Z,19.50
2023-03-08T04:36:22.578Z,21.60
2023-03-08T04:37:22.556Z,19.10
2023-03-08T04:38:23.562Z,20.60
2023-03-08T04:39:22.585Z,23.30
2023-03-08T04:40:22.547Z,23.10
2023-03-08T04:41:22.536Z,22.60
2023-03-08T04:42:22.526Z,24.50
2023-03-08T04:43:22.522Z,20.70
2023-03-08T04:44:22.539Z,19.80
2023-03-08T04:45:22.522Z,21.30
2023-03-08T04:46:22.596Z,22.20
2023-03-08T04:47:22.502Z,21.30
2023-03-08T04:48:23.823Z,21.40
2023-03-08T04:49:22.504Z,19.80
2023-03-08T04:50:22.471Z,20.70
2023-03-08T04:51:22.464Z,20.50
2023-03-08T04:52:22.458Z,17.80
2023-03-08T04:53:22.451Z,21.00
2023-03-08T04:54:22.474Z,16.90
2023-03-08T04:55:22.440Z,19.40
2023-03-08T04:56:22.429Z,18.40
2023-03-08T04:57:22.421Z,17.70
2023-03-08T04:58:22.414Z,16.50
2023-03-08T04:59:22.428Z,15.40
2023-03-08T05:00:22.414Z,15.10
2023-03-08T05:01:22.392Z,16.10
2023-03-08T05:02:22.409Z,17.90
2023-03-08T05:03:22.380Z,19.70
2023-03-08T05:04:22.398Z,16.00
2023-03-08T05:05:22.361Z,14.60
2023-03-08T05:06:22.391Z,16.20
2023-03-08T05:07:22.382Z,14.60
2023-03-08T05:08:22.378Z,15.10
2023-03-08T05:09:22.383Z,15.30
2023-03-08T05:10:22.323Z,15.60
2023-03-08T05:11:22.313Z,17.20
2023-03-08T05:12:22.305Z,17.50
2023-03-08T05:13:22.301Z,15.30
2023-03-08T05:14:22.342Z,15.50
2023-03-08T05:15:22.292Z,14.80
2023-03-08T05:16:22.318Z,17.30
2023-03-08T05:17:22.269Z,17.20
2023-03-08T05:18:22.264Z,16.00
2023-03-08T05:19:22.302Z,17.20
2023-03-08T05:20:22.261Z,17.60
2023-03-08T05:21:22.238Z,16.80
2023-03-08T05:22:22.234Z,16.60
2023-03-08T05:23:22.236Z,18.50
2023-03-08T05:24:22.222Z,18.70
2023-03-08T05:25:22.233Z,18.50
2023-03-08T05:26:22.225Z,18.20
2023-03-08T05:27:22.196Z,17.80
2023-03-08T05:28:22.190Z,19.10
2023-03-08T05:29:22.184Z,18.60
2023-03-08T05:30:22.210Z,17.70
2023-03-08T05:31:22.203Z,18.90
2023-03-08T05:32:22.205Z,17.40
2023-03-08T05:33:22.152Z,17.00
2023-03-08T05:34:22.150Z,17.50
2023-03-08T05:35:22.162Z,23.30
2023-03-08T05:36:22.145Z,23.20
2023-03-08T05:37:22.118Z,17.60
2023-03-08T05:38:22.142Z,15.20
2023-03-08T05:39:22.103Z,16.30
2023-03-08T05:40:22.125Z,17.40
2023-03-08T05:41:22.089Z,14.70
2023-03-08T05:42:22.089Z,14.40
2023-03-08T05:43:22.072Z,13.10
2023-03-08T05:44:22.063Z,14.10
2023-03-08T05:45:22.132Z,13.90
2023-03-08T05:46:22.209Z,16.00
2023-03-08T05:47:22.043Z,14.90
2023-03-08T05:48:22.036Z,12.30
2023-03-08T05:49:22.043Z,12.90
2023-03-08T05:50:22.049Z,13.50
2023-03-08T05:51:22.014Z,13.00
2023-03-08T05:52:22.028Z,13.50
2023-03-08T05:53:22.001Z,13.20
2023-03-08T05:54:21.987Z,13.60
2023-03-08T05:55:22.016Z,13.40
2023-03-08T05:56:21.984Z,13.00
2023-03-08T05:57:21.960Z,12.40
2023-03-08T05:58:21.957Z,14.10
2023-03-08T05:59:21.946Z,10.10
2023-03-08T06:00:21.985Z,12.80
2023-03-08T06:01:21.935Z,12.00
2023-03-08T06:02:21.938Z,15.30
2023-03-08T06:03:21.946Z,11.70
2023-03-08T06:04:21.916Z,14.30
2023-03-08T06:05:21.930Z,14.70
2023-03-08T06:06:21.900Z,14.40
2023-03-08T06:07:21.897Z,12.50
2023-03-08T06:08:21.889Z,11.80
2023-03-08T06:09:21.880Z,14.00
2023-03-08T06:10:21.890Z,13.90
2023-03-08T06:11:21.864Z,14.10
2023-03-08T06:12:21.852Z,14.30
2023-03-08T06:13:21.849Z,12.80
2023-03-08T06:14:21.843Z,15.80
2023-03-08T06:15:21.852Z,15.20
2023-03-08T06:16:21.848Z,14.70
2023-03-08T06:17:21.814Z,15.20
2023-03-08T06:18:21.802Z,15.40
2023-03-08T06:19:21.810Z,14.20
2023-03-08T06:20:21.817Z,13.60
2023-03-08T06:21:21.791Z,13.60
2023-03-08T06:22:21.779Z,14.50
2023-03-08T06:23:21.767Z,15.00
2023-03-08T06:24:21.825Z,12.60
2023-03-08T06:25:21.800Z,14.10
2023-03-08T06:26:21.770Z,12.20
2023-03-08T06:27:21.760Z,13.80
2023-03-08T06:28:21.741Z,12.80
2023-03-08T06:29:21.734Z,12.50
2023-03-08T06:30:21.744Z,12.60
2023-03-08T06:31:21.723Z,13.50
2023-03-08T06:32:21.737Z,12.60
2023-03-08T06:33:21.711Z,13.20
2023-03-08T06:34:21.724Z,13.50
2023-03-08T06:35:21.846Z,15.10
2023-03-08T06:36:21.682Z,15.50
2023-03-08T06:37:21.682Z,13.60
2023-03-08T06:38:21.662Z,15.70
2023-03-08T06:39:21.660Z,14.30
2023-03-08T06:40:21.675Z,12.30
2023-03-08T06:41:21.649Z,14.10
2023-03-08T06:42:34.534Z,12.60
2023-03-08T06:43:23.637Z,15.70
2023-03-08T06:44:21.624Z,14.60
2023-03-08T06:45:21.635Z,15.20
2023-03-08T06:46:21.692Z,16.70
2023-03-08T06:47:21.608Z,13.00
2023-03-08T06:48:21.598Z,10.10
2023-03-08T06:49:21.592Z,8.70
2023-03-08T06:50:21.607Z,5.80
2023-03-08T06:51:21.569Z,6.90
2023-03-08T06:52:21.563Z,6.20
2023-03-08T06:53:21.576Z,6.00
2023-03-08T06:54:21.550Z,7.80
2023-03-08T06:55:21.564Z,5.90
2023-03-08T06:56:21.532Z,4.60
2023-03-08T06:57:21.520Z,8.00
2023-03-08T06:58:21.517Z,5.40
2023-03-08T06:59:21.508Z,6.10
2023-03-08T07:00:21.525Z,5.50
2023-03-08T07:01:21.513Z,4.50
2023-03-08T07:02:21.495Z,4.90
2023-03-08T07:03:21.476Z,3.20
2023-03-08T07:04:21.492Z,10.10
2023-03-08T07:05:21.484Z,6.00
2023-03-08T07:06:21.452Z,4.20
2023-03-08T07:07:21.539Z,4.30
2023-03-08T07:08:21.439Z,5.00
2023-03-08T07:09:21.433Z,6.10
2023-03-08T07:10:21.451Z,6.60
2023-03-08T07:11:21.445Z,5.10
2023-03-08T07:12:21.401Z,4.50
2023-03-08T07:13:21.392Z,3.40
2023-03-08T07:14:21.384Z,5.20
2023-03-08T07:15:21.413Z,5.60
2023-03-08T07:16:21.388Z,7.20
2023-03-08T07:17:21.363Z,3.90
2023-03-08T07:18:21.362Z,5.80
2023-03-08T07:19:21.351Z,8.10
2023-03-08T07:20:21.370Z,4.80
2023-03-08T07:21:21.335Z,5.10
2023-03-08T07:22:21.326Z,6.70
2023-03-08T07:23:21.333Z,4.10
2023-03-08T07:24:21.315Z,4.20
2023-03-08T07:25:21.330Z,6.80
2023-03-08T07:26:21.300Z,4.70
2023-03-08T07:27:21.286Z,6.80
2023-03-08T07:28:21.280Z,4.90
2023-03-08T07:29:21.280Z,3.10
2023-03-08T07:30:21.281Z,4.10
2023-03-08T07:31:21.254Z,1.80
2023-03-08T07:32:21.337Z,3.20
2023-03-08T07:33:21.249Z,2.10
2023-03-08T07:34:21.236Z,2.60
2023-03-08T07:35:21.256Z,2.80
2023-03-08T07:36:21.319Z,2.40
2023-03-08T07:37:21.211Z,3.40
2023-03-08T07:38:21.209Z,3.10
2023-03-08T07:39:21.193Z,5.00
2023-03-08T07:40:21.221Z,4.60
2023-03-08T07:41:21.185Z,3.30
2023-03-08T07:42:21.175Z,4.30
2023-03-08T07:43:21.175Z,5.80
2023-03-08T07:44:21.275Z,4.50
2023-03-08T07:45:21.184Z,5.80
2023-03-08T07:46:21.214Z,4.70
2023-03-08T07:47:22.144Z,4.70
2023-03-08T07:48:22.149Z,7.50
2023-03-08T07:49:21.128Z,5.70
2023-03-08T07:50:21.143Z,4.60
2023-03-08T07:51:21.123Z,4.20
2023-03-08T07:52:21.101Z,5.90
2023-03-08T07:53:21.098Z,6.10
2023-03-08T07:54:22.606Z,4.10
2023-03-08T07:55:22.132Z,4.30
2023-03-08T07:56:21.067Z,3.50
2023-03-08T07:57:21.068Z,3.50
2023-03-08T07:58:21.060Z,5.70
2023-03-08T07:59:21.053Z,5.10
2023-03-08T08:00:21.073Z,5.30
2023-03-08T08:01:21.035Z,5.10
2023-03-08T08:02:21.043Z,3.90
2023-03-08T08:03:21.084Z,5.50
2023-03-08T08:04:21.057Z,3.30
2023-03-08T08:05:21.091Z,3.40
2023-03-08T08:06:21.020Z,3.30
2023-03-08T08:07:21.030Z,4.10
2023-03-08T08:08:20.981Z,5.10
2023-03-08T08:09:21.013Z,3.30
2023-03-08T08:10:21.095Z,3.70
2023-03-08T08:11:21.011Z,4.50
2023-03-08T08:12:20.951Z,4.10
2023-03-08T08:13:20.953Z,4.60
2023-03-08T08:14:20.944Z,4.00
2023-03-08T08:15:20.953Z,4.90
2023-03-08T08:16:21.048Z,5.00
2023-03-08T08:17:20.910Z,5.70
2023-03-08T08:18:20.910Z,4.60
2023-03-08T08:19:20.899Z,4.20
2023-03-08T08:20:20.896Z,5.60
2023-03-08T08:21:20.917Z,5.60
2023-03-08T08:22:20.871Z,5.50
2023-03-08T08:23:20.873Z,6.10
2023-03-08T08:24:20.862Z,4.20
2023-03-08T08:25:20.857Z,3.40
2023-03-08T08:26:20.866Z,6.10
2023-03-08T08:27:20.847Z,6.10
2023-03-08T08:28:20.839Z,5.60
2023-03-08T08:29:21.825Z,5.10
2023-03-08T08:30:20.818Z,4.30
2023-03-08T08:31:20.862Z,5.30
2023-03-08T08:32:20.847Z,6.40
2023-03-08T08:33:20.797Z,5.90
2023-03-08T08:34:20.790Z,4.00
2023-03-08T08:35:20.773Z,5.80
2023-03-08T08:36:20.842Z,3.40
2023-03-08T08:37:20.761Z,7.60
2023-03-08T08:38:20.756Z,7.20
2023-03-08T08:39:20.744Z,3.90
2023-03-08T08:40:20.732Z,4.10
2023-03-08T08:41:20.760Z,3.70
2023-03-08T08:42:20.732Z,6.20
2023-03-08T08:43:20.728Z,4.80
2023-03-08T08:44:20.713Z,4.70
2023-03-08T08:45:20.704Z,7.10
2023-03-08T08:46:20.720Z,6.10
2023-03-08T08:47:20.696Z,5.50
2023-03-08T08:48:20.681Z,7.20
2023-03-08T08:49:20.681Z,5.40
2023-03-08T08:50:20.681Z,6.50
2023-03-08T08:51:20.682Z,7.40
2023-03-08T08:52:20.668Z,3.50
2023-03-08T08:53:20.734Z,4.20
2023-03-08T08:54:20.657Z,5.20
2023-03-08T08:55:20.625Z,5.20
2023-03-08T08:56:26.619Z,3.90
2023-03-08T08:57:22.611Z,4.20
2023-03-08T08:58:20.606Z,5.30
2023-03-08T08:59:20.604Z,6.30
2023-03-08T09:00:20.589Z,5.00
2023-03-08T09:01:20.605Z,4.40
2023-03-08T09:02:20.605Z,4.90
2023-03-08T09:03:20.578Z,4.30
2023-03-08T09:04:20.704Z,5.50
2023-03-08T09:05:20.574Z,4.70
2023-03-08T09:06:20.572Z,4.80
2023-03-08T09:07:20.534Z,5.20
2023-03-08T09:08:20.526Z,4.80
2023-03-08T09:09:20.522Z,8.40
2023-03-08T09:10:20.512Z,9.00
2023-03-08T09:11:20.537Z,4.30
2023-03-08T09:12:20.502Z,5.10
2023-03-08T09:13:20.516Z,4.90
2023-03-08T09:14:20.492Z,5.50
2023-03-08T09:15:20.463Z,5.60
2023-03-08T09:16:20.520Z,5.70
2023-03-08T09:17:20.463Z,5.60
2023-03-08T09:18:20.451Z,4.90
2023-03-08T09:19:20.515Z,5.50
2023-03-08T09:20:22.252Z,5.20
2023-03-08T09:21:21.453Z,4.20
2023-03-08T09:22:20.461Z,5.20
2023-03-08T09:23:20.415Z,5.40
2023-03-08T09:24:20.406Z,5.70
2023-03-08T09:25:20.405Z,6.50
2023-03-08T09:26:20.419Z,4.50
2023-03-08T09:27:20.389Z,5.80
2023-03-08T09:28:20.374Z,4.70
2023-03-08T09:29:20.371Z,7.10
2023-03-08T09:30:20.365Z,6.00
2023-03-08T09:31:20.390Z,4.40
2023-03-08T09:32:20.403Z,6.20
2023-03-08T09:33:20.337Z,6.90
2023-03-08T09:34:20.337Z,4.60
2023-03-08T09:35:20.331Z,4.60
2023-03-08T09:36:20.370Z,7.00
2023-03-08T09:37:20.307Z,6.30
2023-03-08T09:38:20.297Z,4.30
2023-03-08T09:39:20.296Z,6.70
2023-03-08T09:40:20.288Z,4.10
2023-03-08T09:41:20.304Z,5.70
2023-03-08T09:42:20.280Z,6.60
2023-03-08T09:43:20.261Z,5.20
2023-03-08T09:44:20.257Z,6.40
2023-03-08T09:45:20.251Z,7.00
2023-03-08T09:46:20.460Z,4.00
2023-03-08T09:47:20.243Z,5.10
2023-03-08T09:48:20.289Z,5.60
2023-03-08T09:49:20.211Z,3.30
2023-03-08T09:50:21.224Z,4.10
2023-03-08T09:51:20.234Z,5.00
2023-03-08T09:52:20.326Z,6.70
2023-03-08T09:53:20.187Z,7.80
2023-03-08T09:54:20.179Z,4.00
2023-03-08T09:55:20.228Z,4.00
2023-03-08T09:56:20.161Z,3.90
2023-03-08T09:57:20.219Z,4.60
2023-03-08T09:58:20.142Z,5.00
2023-03-08T09:59:20.141Z,5.20
2023-03-08T10:00:20.134Z,4.60
2023-03-08T10:01:20.118Z,3.40
2023-03-08T10:02:20.142Z,3.60
2023-03-08T10:03:20.103Z,4.20
2023-03-08T10:04:20.141Z,3.00
2023-03-08T10:05:20.091Z,3.60
2023-03-08T10:06:20.094Z,4.30
2023-03-08T10:07:20.106Z,4.10
2023-03-08T10:08:20.066Z,3.00
2023-03-08T10:09:20.062Z,3.50
2023-03-08T10:10:22.956Z,4.20
2023-03-08T10:11:20.039Z,4.00
2023-03-08T10:12:20.061Z,3.00
2023-03-08T10:13:20.023Z,3.10
2023-03-08T10:14:20.022Z,3.10
2023-03-08T10:15:20.004Z,4.80
2023-03-08T10:16:20.663Z,3.60
2023-03-08T10:17:20.015Z,4.20
2023-03-08T10:18:19.980Z,4.10
2023-03-08T10:19:19.989Z,4.10
2023-03-08T10:20:20.056Z,4.30
2023-03-08T10:21:19.973Z,4.60
2023-03-08T10:22:19.973Z,5.30
2023-03-08T10:23:19.943Z,5.20
2023-03-08T10:24:20.085Z,4.60
2023-03-08T10:25:19.930Z,4.00
2023-03-08T10:26:19.933Z,7.80
2023-03-08T10:27:19.949Z,6.20
2023-03-08T10:28:19.931Z,8.30
2023-03-08T10:29:19.903Z,7.50
2023-03-08T10:30:19.994Z,9.20
2023-03-08T10:31:19.885Z,9.10
2023-03-08T10:32:19.923Z,9.20
2023-03-08T10:33:19.877Z,8.80
2023-03-08T10:34:19.863Z,7.80
2023-03-08T10:35:19.861Z,6.00
2023-03-08T10:36:19.858Z,6.30
2023-03-08T10:37:19.899Z,6.50
2023-03-08T10:38:19.831Z,7.90
2023-03-08T10:39:19.823Z,7.80
2023-03-08T10:40:19.859Z,6.90
2023-03-08T10:41:19.811Z,6.70
2023-03-08T10:42:19.830Z,5.80
2023-03-08T10:43:19.797Z,6.20
2023-03-08T10:44:21.765Z,5.90
2023-03-08T10:45:19.792Z,5.60
2023-03-08T10:46:19.786Z,6.30
2023-03-08T10:47:19.796Z,5.50
2023-03-08T10:48:19.750Z,5.50
2023-03-08T10:49:19.754Z,7.10
2023-03-08T10:50:19.749Z,10.90
2023-03-08T10:51:19.732Z,10.30
2023-03-08T10:52:19.750Z,10.70
2023-03-08T10:53:19.732Z,8.70
2023-03-08T10:54:19.715Z,8.40
2023-03-08T10:55:19.704Z,10.10
2023-03-08T10:56:19.763Z,10.00
2023-03-08T10:57:19.715Z,8.10
2023-03-08T10:58:19.679Z,8.10
2023-03-08T10:59:19.671Z,6.40
2023-03-08T11:00:19.665Z,6.20
2023-03-08T11:01:19.680Z,7.60
2023-03-08T11:02:19.695Z,7.30
2023-03-08T11:03:19.644Z,7.10
2023-03-08T11:04:19.678Z,8.80
2023-03-08T11:05:19.628Z,6.70
2023-03-08T11:06:19.614Z,7.20
2023-03-08T11:07:19.649Z,7.40
2023-03-08T11:08:19.598Z,6.40
2023-03-08T11:09:19.602Z,7.50
2023-03-08T11:10:19.790Z,8.50
2023-03-08T11:11:19.615Z,8.40
2023-03-08T11:12:20.632Z,10.40
2023-03-08T11:13:19.562Z,9.40
2023-03-08T11:14:19.587Z,11.60
2023-03-08T11:15:19.540Z,11.10
2023-03-08T11:16:19.565Z,10.80
2023-03-08T11:17:19.557Z,9.10
2023-03-08T11:18:19.580Z,9.00
2023-03-08T11:19:19.585Z,8.70
2023-03-08T11:20:19.513Z,10.20
2023-03-08T11:21:19.491Z,9.80
2023-03-08T11:22:19.515Z,8.70
2023-03-08T11:23:19.484Z,9.20
2023-03-08T11:24:19.482Z,11.40
2023-03-08T11:25:19.460Z,10.50
2023-03-08T11:26:19.453Z,12.10
2023-03-08T11:27:19.549Z,9.20
2023-03-08T11:28:19.441Z,11.80
2023-03-08T11:29:19.426Z,11.90
2023-03-08T11:30:19.425Z,13.50
2023-03-08T11:31:19.461Z,12.10
2023-03-08T11:32:19.526Z,17.50
2023-03-08T11:33:19.600Z,16.70
2023-03-08T11:34:19.393Z,16.00
2023-03-08T11:35:19.387Z,17.70
2023-03-08T11:36:19.375Z,15.40
2023-03-08T11:37:19.396Z,18.40
2023-03-08T11:38:19.365Z,17.60
2023-03-08T11:39:19.370Z,20.10
2023-03-08T11:40:19.343Z,18.70
2023-03-08T11:41:19.337Z,15.70
2023-03-08T11:42:19.366Z,20.40
2023-03-08T11:43:19.323Z,16.70
2023-03-08T11:44:19.343Z,14.10
2023-03-08T11:45:19.308Z,15.10
2023-03-08T11:46:19.402Z,15.30
2023-03-08T11:47:19.289Z,14.50
2023-03-08T11:48:19.808Z,14.00
2023-03-08T11:49:19.275Z,15.00
2023-03-08T11:50:19.280Z,15.20
2023-03-08T11:51:19.284Z,15.10
2023-03-08T11:52:19.258Z,13.10
2023-03-08T11:53:19.294Z,14.30
2023-03-08T11:54:19.244Z,15.00
2023-03-08T11:55:19.255Z,17.00
2023-03-08T11:56:19.223Z,15.60
2023-03-08T11:57:19.215Z,15.60
2023-03-08T11:58:19.234Z,15.60
2023-03-08T11:59:19.202Z,13.60
2023-03-08T12:00:19.195Z,12.80
2023-03-08T12:01:19.185Z,15.50
2023-03-08T12:02:19.188Z,16.50
2023-03-08T12:03:19.232Z,12.40
2023-03-08T12:04:19.244Z,13.00
2023-03-08T12:05:19.202Z,13.80
2023-03-08T12:06:28.357Z,13.80
2023-03-08T12:07:21.239Z,14.80
2023-03-08T12:08:19.183Z,13.10
2023-03-08T12:09:19.123Z,16.00
2023-03-08T12:10:19.152Z,13.90
2023-03-08T12:11:19.110Z,10.60
2023-03-08T12:12:19.104Z,12.50
2023-03-08T12:13:19.125Z,13.10
2023-03-08T12:14:19.089Z,13.10
2023-03-08T12:15:19.102Z,10.20
2023-03-08T12:16:19.287Z,14.30
2023-03-08T12:17:19.113Z,11.30
2023-03-08T12:18:19.101Z,11.10
2023-03-08T12:19:19.052Z,12.00
2023-03-08T12:20:19.037Z,13.10
2023-03-08T12:21:19.046Z,11.70
2023-03-08T12:22:19.033Z,12.60
2023-03-08T12:23:19.049Z,10.70
2023-03-08T12:24:19.020Z,16.10
2023-03-08T12:25:19.013Z,14.00
2023-03-08T12:26:19.002Z,12.80
2023-03-08T12:27:18.986Z,15.50
2023-03-08T12:28:19.066Z,14.00
2023-03-08T12:29:19.005Z,13.60
2023-03-08T12:30:18.957Z,11.50
2023-03-08T12:31:27.572Z,13.00
2023-03-08T12:32:21.156Z,10.70
2023-03-08T12:33:19.230Z,12.20
2023-03-08T12:34:18.936Z,9.80
2023-03-08T12:35:18.930Z,12.90
2023-03-08T12:36:19.054Z,11.70
2023-03-08T12:37:18.960Z,9.90
2023-03-08T12:38:18.960Z,11.70
2023-03-08T12:39:18.961Z,10.80
2023-03-08T12:40:18.934Z,10.10
2023-03-08T12:41:18.899Z,12.00
2023-03-08T12:42:18.889Z,12.20
2023-03-08T12:43:18.870Z,13.30
2023-03-08T12:44:18.900Z,11.30
2023-03-08T12:45:18.852Z,10.50
2023-03-08T12:46:18.867Z,12.90
2023-03-08T12:47:18.840Z,12.90
2023-03-08T12:48:18.949Z,12.30
2023-03-08T12:49:18.871Z,11.10
2023-03-08T12:50:18.858Z,10.60
2023-03-08T12:51:18.840Z,13.30
2023-03-08T12:52:18.881Z,11.80
2023-03-08T12:53:18.799Z,10.60
2023-03-08T12:54:18.815Z,12.50
2023-03-08T12:55:18.776Z,10.60
2023-03-08T12:56:18.792Z,13.40
2023-03-08T12:57:18.767Z,12.80
2023-03-08T12:58:18.762Z,12.20
2023-03-08T12:59:18.773Z,12.20
2023-03-08T13:00:18.733Z,11.40
2023-03-08T13:01:18.833Z,11.20
2023-03-08T13:02:18.736Z,13.20